Time;durP1;ratioP1;P1;durP2;ratioP2;P2;SDS_P1;SDS_P2;PMS_P1;PMS_P2;Temp;Humidity;BMP_temperature;BMP_pressure;BME280_temperature;BME280_humidity;BME280_pressure;Samples;Min_cycle;Max_cycle;Signal;HPM_P1;HPM_P2
2022/04/08 00:02:09;;;;;;;2.58;1.47;;;;;;;6.81;70.53;97752.52;1693802;82;21529;-80
2022/04/08 00:04:36;;;;;;;2.45;1.30;;;;;;;6.89;70.40;97754.17;1689261;83;21045;-78
2022/04/08 00:07:03;;;;;;;1.80;1.12;;;;;;;6.89;70.20;97743.71;1688979;83;21037;-79
2022/04/08 00:09:30;;;;;;;3.77;1.45;;;;;;;6.91;70.06;97755.05;1694118;82;21705;-80
2022/04/08 00:11:57;;;;;;;2.98;1.10;;;;;;;6.93;70.01;97759.38;1689821;83;21751;-79
2022/04/08 00:14:24;;;;;;;2.52;1.40;;;;;;;6.91;69.87;97749.83;1694817;82;21539;-80
2022/04/08 00:16:51;;;;;;;3.42;2.15;;;;;;;6.84;69.73;97745.07;1683200;83;21093;-79
2022/04/08 00:19:18;;;;;;;2.80;1.67;;;;;;;6.76;69.71;97752.98;1688574;83;21041;-79
2022/04/08 00:21:48;;;;;;;2.17;1.30;;;;;;;6.68;69.65;97759.14;1673837;84;21124;-79
2022/04/08 00:24:14;;;;;;;2.95;1.30;;;;;;;6.60;69.67;97758.75;1689621;83;21785;-80
2022/04/08 00:26:42;;;;;;;3.75;1.15;;;;;;;6.54;69.86;97750.96;1694250;82;21033;-79
2022/04/08 00:29:08;;;;;;;4.58;1.42;;;;;;;6.60;70.10;97770.95;1689708;83;21520;-79
2022/04/08 00:31:36;;;;;;;1.75;1.10;;;;;;;6.68;70.14;97746.95;1689350;83;21061;-79
2022/04/08 00:34:03;;;;;;;4.15;1.30;;;;;;;6.74;70.00;97745.59;1694518;82;21068;-78
2022/04/08 00:36:30;;;;;;;3.12;1.47;;;;;;;6.74;69.82;97743.43;1689431;83;21854;-79
2022/04/08 00:38:57;;;;;;;2.72;1.22;;;;;;;6.70;69.71;97745.61;1694436;82;21021;-79
2022/04/08 00:41:24;;;;;;;3.65;1.35;;;;;;;6.71;69.72;97746.05;1689773;83;21048;-79
2022/04/08 00:43:51;;;;;;;2.67;1.40;;;;;;;6.73;69.71;97739.92;1694072;82;21613;-79
2022/04/08 00:46:18;;;;;;;4.42;1.40;;;;;;;6.79;69.69;97741.62;1682071;82;21061;-79
2022/04/08 00:48:45;;;;;;;2.27;1.30;;;;;;;6.85;69.67;97743.31;1654625;83;21841;-79
2022/04/08 00:51:12;;;;;;;3.92;1.45;;;;;;;6.89;69.58;97734.14;1672290;83;21041;-79
2022/04/08 00:53:39;;;;;;;2.62;1.50;;;;;;;6.92;69.46;97741.08;1696502;82;21044;-79
2022/04/08 00:56:05;;;;;;;2.83;1.32;;;;;;;6.89;69.35;97741.98;1696282;82;21052;-78
2022/04/08 00:58:32;;;;;;;3.35;1.37;;;;;;;6.90;69.39;97749.38;1648826;83;21070;-79
2022/04/08 01:00:59;;;;;;;3.20;1.37;;;;;;;6.91;69.32;97745.91;1651283;85;22728;-79
2022/04/08 01:03:26;;;;;;;3.52;1.30;;;;;;;6.91;69.31;97751.13;1676492;83;20958;-79
2022/04/08 01:05:53;;;;;;;4.60;1.40;;;;;;;6.90;69.28;97747.63;1676812;83;21495;-78
2022/04/08 01:08:19;;;;;;;2.58;1.57;;;;;;;6.90;69.23;97741.54;1696193;82;21324;-79
2022/04/08 01:10:46;;;;;;;4.47;1.35;;;;;;;6.89;69.19;97743.71;1676652;83;21089;-78
2022/04/08 01:13:13;;;;;;;4.35;1.60;;;;;;;6.87;69.18;97739.83;1695967;82;21786;-79
2022/04/08 01:15:39;;;;;;;1.75;1.05;;;;;;;6.84;69.05;97736.38;1676550;83;21625;-80
2022/04/08 01:18:06;;;;;;;2.17;1.17;;;;;;;6.70;68.95;97732.55;1696259;82;21080;-79
2022/04/08 01:20:34;;;;;;;2.77;1.17;;;;;;;6.59;68.97;97735.27;1696062;82;21143;-79
2022/04/08 01:23:00;;;;;;;3.87;1.70;;;;;;;6.49;69.08;97739.66;1696247;82;21116;-79
2022/04/08 01:25:27;;;;;;;3.90;1.40;;;;;;;6.42;69.23;97737.55;1678499;83;22147;-79
2022/04/08 01:27:54;;;;;;;3.10;1.40;;;;;;;6.39;69.42;97734.09;1700633;82;21109;-79
2022/04/08 01:30:21;;;;;;;5.42;1.70;;;;;;;6.42;69.59;97741.47;1679053;83;21658;-79
2022/04/08 01:32:48;;;;;;;4.85;1.70;;;;;;;6.49;69.73;97737.05;1695854;82;21210;-79
2022/04/08 01:35:15;;;;;;;3.08;1.65;;;;;;;6.57;69.74;97741.80;1676037;83;21519;-79
2022/04/08 01:37:41;;;;;;;3.40;1.55;;;;;;;6.63;69.72;97730.88;1695935;82;22594;-79
2022/04/08 01:40:10;;;;;;;3.12;1.62;;;;;;;6.69;69.70;97736.05;1676885;84;21005;-80
2022/04/08 01:42:37;;;;;;;3.47;1.60;;;;;;;6.77;69.65;97732.92;1696754;82;21087;-80
2022/04/08 01:45:05;;;;;;;2.80;1.40;;;;;;;6.84;69.61;97740.30;1695859;82;21088;-80
2022/04/08 01:47:34;;;;;;;3.17;1.50;;;;;;;6.87;69.55;97729.78;1688227;82;21084;-80
2022/04/08 01:50:01;;;;;;;2.85;1.57;;;;;;;6.92;69.53;97730.63;1679005;83;23263;-79
2022/04/08 01:52:28;;;;;;;4.05;1.60;;;;;;;6.97;69.47;97740.61;1650271;85;21090;-79
2022/04/08 01:54:55;;;;;;;5.90;1.60;;;;;;;7.00;69.44;97736.64;1679465;83;21066;-79
2022/04/08 01:57:23;;;;;;;4.75;1.65;;;;;;;7.02;69.30;97738.83;1650197;85;21714;-79
2022/04/08 01:59:52;;;;;;;2.02;1.32;;;;;;;7.05;69.30;97737.92;1679271;84;21066;-79
2022/04/08 02:02:19;;;;;;;3.47;1.30;;;;;;;7.05;69.17;97728.77;1651973;85;21976;-79
2022/04/08 02:04:46;;;;;;;3.72;1.90;;;;;;;6.99;69.04;97724.46;1680865;83;20997;-79
2022/04/08 02:07:13;;;;;;;1.77;1.30;;;;;;;6.91;68.92;97726.30;1645992;85;21624;-79
2022/04/08 02:09:39;;;;;;;3.15;1.55;;;;;;;6.83;68.84;97722.86;1647232;85;21058;-79
2022/04/08 02:12:07;;;;;;;3.25;1.50;;;;;;;6.68;68.80;97718.20;1678844;83;21080;-79
2022/04/08 02:14:33;;;;;;;2.35;1.35;;;;;;;6.54;68.87;97718.30;1650097;85;21776;-79
2022/04/08 02:17:00;;;;;;;3.65;1.80;;;;;;;6.46;68.99;97726.64;1679303;83;21115;-79
2022/04/08 02:19:27;;;;;;;3.00;1.70;;;;;;;6.35;69.10;97726.71;1640014;84;21578;-79
2022/04/08 02:21:54;;;;;;;3.80;1.67;;;;;;;6.29;69.17;97725.87;1668554;84;21304;-79
2022/04/08 02:24:21;;;;;;;4.45;1.50;;;;;;;6.20;69.22;97735.95;1656490;85;21098;-79
2022/04/08 02:26:48;;;;;;;5.17;1.85;;;;;;;6.12;69.30;97729.89;1679123;85;21763;-79
2022/04/08 02:29:14;;;;;;;3.40;1.65;;;;;;;6.06;69.45;97728.19;1678978;83;21069;-78
2022/04/08 02:31:41;;;;;;;4.08;1.87;;;;;;;6.07;69.68;97729.08;1650015;85;21069;-78
2022/04/08 02:34:08;;;;;;;7.47;1.98;;;;;;;6.13;69.80;97724.67;1678694;83;21107;-79
2022/04/08 02:36:34;;;;;;;4.50;1.67;;;;;;;6.23;69.85;97727.67;1678488;85;21043;-79
2022/04/08 02:39:01;;;;;;;6.35;1.65;;;;;;;6.26;69.63;97715.46;1678480;85;21765;-79
2022/04/08 02:41:28;;;;;;;2.52;1.92;;;;;;;6.20;69.44;97716.38;1651994;84;21172;-79
2022/04/08 02:43:55;;;;;;;4.80;1.85;;;;;;;6.12;69.42;97715.11;1667067;85;21097;-78
2022/04/08 02:46:21;;;;;;;4.35;1.80;;;;;;;6.05;69.45;97710.80;1678713;85;21158;-79
2022/04/08 02:48:50;;;;;;;4.70;1.70;;;;;;;5.96;69.49;97703.88;1658724;85;21089;-77
2022/04/08 02:51:16;;;;;;;5.60;1.77;;;;;;;5.92;69.59;97715.19;1678801;84;21891;-79
2022/04/08 02:53:43;;;;;;;3.37;1.60;;;;;;;5.90;69.67;97710.41;1678475;83;21054;-78
2022/04/08 02:56:10;;;;;;;2.60;1.40;;;;;;;5.85;69.68;97720.86;1678369;83;21098;-79
2022/04/08 02:58:37;;;;;;;4.22;1.60;;;;;;;5.81;69.74;97716.53;1678446;83;21153;-80
2022/04/08 03:01:04;;;;;;;4.92;1.75;;;;;;;5.80;69.83;97725.67;1677553;83;21082;-81
2022/04/08 03:03:31;;;;;;;3.27;1.62;;;;;;;5.82;70.00;97723.50;1678108;83;21851;-80
2022/04/08 03:05:58;;;;;;;7.97;2.00;;;;;;;5.87;70.00;97721.30;1678651;83;21081;-79
2022/04/08 03:08:25;;;;;;;4.72;1.77;;;;;;;5.87;69.99;97715.64;1652502;85;21078;-80
2022/04/08 03:10:52;;;;;;;4.75;1.52;;;;;;;5.90;70.08;97715.63;1677650;85;21861;-79
2022/04/08 03:13:18;;;;;;;6.22;1.90;;;;;;;5.95;70.13;97715.59;1652474;84;21104;-80
2022/04/08 03:15:45;;;;;;;3.87;1.67;;;;;;;6.00;70.18;97713.87;1675369;83;21760;-79
2022/04/08 03:18:12;;;;;;;2.50;1.57;;;;;;;6.06;70.26;97720.80;1649661;85;21066;-79
2022/04/08 03:20:42;;;;;;;8.55;2.12;;;;;;;6.11;70.31;97717.73;1679016;83;21077;-79
2022/04/08 03:23:08;;;;;;;5.80;2.02;;;;;;;6.12;70.34;97724.67;1650121;85;21344;-79
2022/04/08 03:25:35;;;;;;;2.80;1.87;;;;;;;6.10;70.34;97713.37;1678736;84;21093;-79
2022/04/08 03:28:02;;;;;;;4.10;2.10;;;;;;;6.05;70.34;97720.39;1650167;85;21829;-78
2022/04/08 03:30:31;;;;;;;4.50;1.98;;;;;;;6.00;70.45;97729.53;1675294;83;21171;-79
2022/04/08 03:32:58;;;;;;;5.22;1.72;;;;;;;5.99;70.59;97730.42;1660251;84;21731;-78
2022/04/08 03:35:25;;;;;;;5.00;2.25;;;;;;;5.97;70.78;97727.81;1659532;85;21150;-79
2022/04/08 03:37:51;;;;;;;4.28;2.10;;;;;;;6.00;70.91;97725.61;1682018;83;21076;-78
2022/04/08 03:40:19;;;;;;;5.40;2.25;;;;;;;5.98;71.03;97732.59;1683820;83;21734;-79
2022/04/08 03:42:46;;;;;;;5.15;2.10;;;;;;;5.99;71.07;97734.34;1653746;85;21407;-79
2022/04/08 03:45:13;;;;;;;3.15;1.80;;;;;;;6.00;71.20;97731.70;1679635;83;21065;-79
2022/04/08 03:47:42;;;;;;;3.90;1.90;;;;;;;6.06;71.35;97730.80;1635898;85;21184;-79
2022/04/08 03:50:09;;;;;;;3.85;2.20;;;;;;;6.11;71.32;97721.65;1674881;83;21480;-80
2022/04/08 03:52:36;;;;;;;5.05;2.30;;;;;;;6.17;71.33;97735.52;1649908;85;22514;-79
2022/04/08 03:55:04;;;;;;;3.92;1.90;;;;;;;6.21;71.28;97728.53;1674590;83;21282;-81
2022/04/08 03:57:34;;;;;;;4.03;1.82;;;;;;;6.25;71.37;97726.77;1649452;85;21087;-80
2022/04/08 04:00:01;;;;;;;2.92;1.80;;;;;;;6.28;71.44;97728.93;1640160;86;21150;-80
2022/04/08 04:02:28;;;;;;;2.85;1.80;;;;;;;6.31;71.40;97731.98;1678924;84;21068;-80
2022/04/08 04:04:59;;;;;;;3.35;1.42;;;;;;;6.33;71.46;97740.23;1661384;85;21877;-80
2022/04/08 04:07:23;;;;;;;4.85;1.92;;;;;;;6.39;71.50;97740.17;1630492;86;21150;-81
2022/04/08 04:09:50;;;;;;;3.12;1.80;;;;;;;6.48;71.56;97747.55;1663797;85;21084;-80
2022/04/08 04:12:17;;;;;;;4.30;1.55;;;;;;;6.52;71.63;97751.41;1627431;86;21165;-82
2022/04/08 04:14:48;;;;;;;2.00;1.60;;;;;;;6.56;71.61;97750.51;1654085;85;21063;-80
2022/04/08 04:17:13;;;;;;;2.45;1.57;;;;;;;6.57;71.55;97761.85;1677901;85;22641;-80
2022/04/08 04:19:40;;;;;;;2.85;1.60;;;;;;;6.61;71.63;97763.11;1647368;86;21070;-82
2022/04/08 04:22:06;;;;;;;3.42;1.70;;;;;;;6.65;71.53;97768.33;1678364;85;21643;-81
2022/04/08 04:24:33;;;;;;;2.85;1.60;;;;;;;6.62;71.32;97763.97;1670224;85;21567;-77
2022/04/08 04:27:00;;;;;;;1.45;1.30;;;;;;;6.52;71.14;97755.34;1625678;86;21128;-77
2022/04/08 04:29:27;;;;;;;5.53;1.90;;;;;;;6.47;71.16;97761.47;1653250;85;22147;-76
2022/04/08 04:31:55;;;;;;;4.22;2.02;;;;;;;6.41;71.23;97761.93;1625195;86;21077;-76
2022/04/08 04:34:24;;;;;;;3.58;1.77;;;;;;;6.47;71.38;97777.15;1655886;85;21669;-76
2022/04/08 04:36:50;;;;;;;2.60;1.50;;;;;;;6.53;71.40;97764.92;1625114;86;21082;-76
2022/04/08 04:39:17;;;;;;;3.58;1.72;;;;;;;6.58;71.35;97767.48;1655371;85;21069;-76
2022/04/08 04:41:44;;;;;;;2.08;1.30;;;;;;;6.65;71.28;97771.80;1635263;86;21816;-84
2022/04/08 04:44:13;;;;;;;1.92;1.05;;;;;;;6.68;71.15;97774.41;1661413;85;21069;-83
2022/04/08 04:46:42;;;;;;;2.83;1.27;;;;;;;6.69;71.08;97779.19;1630334;86;21145;-85
2022/04/08 04:49:09;;;;;;;1.70;1.25;;;;;;;6.67;71.00;97796.17;1670328;82;21061;-84
2022/04/08 04:51:36;;;;;;;1.40;1.00;;;;;;;6.71;71.14;97803.56;1692186;82;21091;-82
2022/04/08 04:54:05;;;;;;;2.60;1.15;;;;;;;6.78;71.23;97816.58;1691732;83;22577;-82
2022/04/08 04:56:32;;;;;;;1.67;1.02;;;;;;;6.83;71.27;97827.44;1692248;82;21076;-85
2022/04/08 04:58:59;;;;;;;1.65;1.50;;;;;;;6.90;71.32;97848.30;1693767;82;21072;-84
2022/04/08 05:01:45;;;;;;;;;;;;;;;;;;;;;
2022/04/08 05:04:30;;;;;;;1.65;0.72;;;;;;;6.88;71.10;97883.19;1607525;87;21065;-83
2022/04/08 05:07:06;;;;;;;0.80;0.65;;;;;;;6.77;70.52;97898.48;1691317;82;23121;-81
2022/04/08 05:09:40;;;;;;;2.98;0.75;;;;;;;6.61;70.58;97913.84;1676733;83;21064;-87
2022/04/08 05:14:59;;;;;;;1.60;0.80;;;;;;;6.50;70.42;97924.78;1664538;83;22051;-83
2022/04/08 05:17:26;;;;;;;2.05;0.80;;;;;;;6.47;70.16;97946.98;1689187;82;21115;-82
2022/04/08 05:19:53;;;;;;;1.50;0.95;;;;;;;6.40;69.87;97936.57;1689390;83;22514;-82
2022/04/08 05:22:25;;;;;;;2.70;0.95;;;;;;;6.37;70.00;97943.55;1687095;83;21721;-82
2022/04/08 05:24:58;;;;;;;1.90;1.20;;;;;;;6.38;69.97;97939.62;1679304;82;21036;-84
2022/04/08 05:27:41;;;;;;;2.22;1.20;;;;;;;6.42;69.91;97947.88;1696417;82;21041;-83
2022/04/08 05:30:17;;;;;;;2.65;1.00;;;;;;;6.55;69.90;97951.73;1699826;83;21083;-82
2022/04/08 05:32:52;;;;;;;2.50;0.90;;;;;;;6.62;69.46;97970.44;1671968;82;21736;-82
2022/04/08 05:35:17;;;;;;;1.37;0.70;;;;;;;6.67;69.12;97986.98;1695259;81;21093;-81
2022/04/08 05:37:46;;;;;;;4.87;1.25;;;;;;;6.62;69.11;97978.28;1686868;82;21116;-82
2022/04/08 05:40:16;;;;;;;1.85;0.88;;;;;;;6.66;69.16;97974.78;1691227;82;21482;-83
2022/04/08 05:42:45;;;;;;;1.57;1.00;;;;;;;6.70;69.03;97975.64;1691950;82;21064;-83
2022/04/08 05:45:14;;;;;;;2.17;0.82;;;;;;;6.72;68.91;97992.18;1692140;82;22592;-82
2022/04/08 05:47:41;;;;;;;2.30;0.95;;;;;;;6.72;68.84;98013.09;1687890;82;21057;-82
2022/04/08 05:50:09;;;;;;;2.77;1.15;;;;;;;6.69;68.76;98019.22;1697039;82;20990;-83
2022/04/08 05:52:36;;;;;;;3.40;1.22;;;;;;;6.65;68.29;98022.72;1696353;82;21053;-81
2022/04/08 05:55:03;;;;;;;4.30;1.42;;;;;;;6.52;68.07;98043.23;1694448;83;21085;-82
2022/04/08 05:57:41;;;;;;;3.42;1.07;;;;;;;6.35;68.08;98046.74;1693732;82;21807;-82
2022/04/08 06:00:13;;;;;;;3.33;1.30;;;;;;;6.25;68.30;98066.34;1690992;82;21136;-82
2022/04/08 06:02:45;;;;;;;4.12;1.50;;;;;;;6.17;68.40;98078.10;1689608;83;21514;-83
2022/04/08 06:05:15;;;;;;;4.70;1.57;;;;;;;6.12;68.70;98088.56;1687413;82;21129;-83
2022/04/08 06:07:56;;;;;;;3.30;1.47;;;;;;;6.12;68.99;98100.73;1692793;82;21084;-81
2022/04/08 06:10:31;;;;;;;2.17;1.00;;;;;;;6.15;68.96;98105.52;1682700;83;21815;-81
2022/04/08 06:12:58;;;;;;;3.10;1.10;;;;;;;6.26;69.08;98122.51;1690720;83;21099;-82
2022/04/08 06:15:26;;;;;;;2.85;1.22;;;;;;;6.27;68.81;98139.04;1689947;83;21372;-82
2022/04/08 06:17:54;;;;;;;3.75;1.42;;;;;;;6.23;68.84;98145.59;1692798;82;21060;-82
2022/04/08 06:20:21;;;;;;;5.00;1.40;;;;;;;6.23;69.06;98152.53;1714335;82;21175;-82
2022/04/08 06:22:48;;;;;;;3.25;1.42;;;;;;;6.20;68.87;98149.94;1691192;82;23046;-81
2022/04/08 06:25:19;;;;;;;4.22;1.57;;;;;;;6.17;68.78;98149.48;1693604;82;21049;-83
2022/04/08 06:27:47;;;;;;;4.05;1.07;;;;;;;6.23;68.90;98160.38;1693799;82;21036;-81
2022/04/08 06:30:17;;;;;;;4.62;1.90;;;;;;;6.36;68.72;98158.23;1690064;82;21092;-82
2022/04/08 06:32:44;;;;;;;6.00;2.47;;;;;;;6.43;68.63;98162.56;1698904;82;21077;-82
2022/04/08 06:35:11;;;;;;;4.40;1.85;;;;;;;6.43;67.95;98176.92;1691067;83;21783;-83
2022/04/08 06:37:38;;;;;;;3.85;1.62;;;;;;;6.51;68.02;98174.76;1690078;82;21089;-82
2022/04/08 06:40:07;;;;;;;3.77;1.50;;;;;;;6.61;68.04;98170.84;1691352;83;21084;-82
2022/04/08 06:42:34;;;;;;;6.72;1.92;;;;;;;6.69;67.77;98178.67;1695176;83;20990;-82
2022/04/08 06:45:03;;;;;;;3.08;1.40;;;;;;;6.67;67.34;98189.57;1690695;83;21076;-83
2022/04/08 06:47:30;;;;;;;4.65;1.98;;;;;;;6.70;67.10;98203.06;1685945;83;22990;-83
2022/04/08 06:49:56;;;;;;;8.03;3.15;;;;;;;6.79;67.20;98198.73;1663844;81;21109;-81
2022/04/08 06:52:23;;;;;;;5.47;2.40;;;;;;;6.94;67.24;98199.55;1670142;83;21480;-83
2022/04/08 06:54:50;;;;;;;5.45;2.70;;;;;;;7.06;66.99;98213.94;1683731;83;21073;-82
2022/04/08 06:57:17;;;;;;;5.20;2.10;;;;;;;7.13;66.74;98219.59;1672088;83;21072;-82
2022/04/08 06:59:44;;;;;;;7.70;2.50;;;;;;;7.21;66.02;98216.96;1669280;83;21810;-82
2022/04/08 07:02:13;;;;;;;7.12;2.25;;;;;;;7.36;65.97;98215.61;1658128;85;21564;-82
2022/04/08 07:04:39;;;;;;;7.72;2.65;;;;;;;7.39;65.20;98205.55;1692151;83;21061;-82
2022/04/08 07:07:06;;;;;;;9.90;4.62;;;;;;;7.38;64.91;98227.38;1682852;83;21100;-81
2022/04/08 07:09:33;;;;;;;6.95;2.62;;;;;;;7.58;65.04;98241.28;1683336;83;21076;-81
2022/04/08 07:12:01;;;;;;;4.62;2.35;;;;;;;7.71;64.53;98248.63;1685110;83;21764;-81
2022/04/08 07:14:29;;;;;;;10.82;3.80;;;;;;;7.79;63.72;98258.66;1689802;83;20981;-81
2022/04/08 07:16:56;;;;;;;4.97;2.55;;;;;;;7.79;63.83;98249.48;1688439;83;21028;-82
2022/04/08 07:19:22;;;;;;;3.80;1.60;;;;;;;7.82;63.46;98266.06;1698539;83;20982;-82
2022/04/08 07:21:49;;;;;;;3.92;2.10;;;;;;;7.93;63.30;98279.98;1673312;82;21310;-83
2022/04/08 07:24:16;;;;;;;4.45;1.72;;;;;;;8.11;62.90;98290.84;1674724;84;21766;-83
2022/04/08 07:26:43;;;;;;;5.05;2.10;;;;;;;8.30;62.79;98283.75;1671520;84;22018;-82
2022/04/08 07:29:09;;;;;;;7.20;1.98;;;;;;;8.51;62.65;98289.33;1667989;85;21041;-81
2022/04/08 07:31:36;;;;;;;5.30;1.70;;;;;;;8.67;62.21;98295.33;1668281;85;21535;-82
2022/04/08 07:34:03;;;;;;;4.78;1.75;;;;;;;8.73;61.56;98317.16;1690230;83;21072;-83
2022/04/08 07:36:30;;;;;;;4.42;1.45;;;;;;;8.74;61.39;98322.81;1684531;83;21774;-83
2022/04/08 07:38:56;;;;;;;5.50;1.65;;;;;;;8.77;61.34;98324.56;1693642;83;21108;-81
2022/04/08 07:41:23;;;;;;;4.37;1.30;;;;;;;8.84;61.16;98329.31;1688611;83;21076;-81
2022/04/08 07:43:50;;;;;;;3.83;1.60;;;;;;;8.87;60.97;98333.23;1695570;82;22444;-82
2022/04/08 07:46:17;;;;;;;4.67;1.47;;;;;;;8.93;60.93;98331.45;1693851;82;22269;-83
2022/04/08 07:48:44;;;;;;;6.62;1.90;;;;;;;9.13;60.82;98336.53;1695308;82;21716;-81
2022/04/08 07:51:11;;;;;;;4.70;1.45;;;;;;;9.15;60.37;98351.81;1685013;83;21113;-82
2022/04/08 07:53:37;;;;;;;6.00;1.35;;;;;;;9.15;60.18;98343.94;1682932;83;21096;-82
2022/04/08 07:56:04;;;;;;;6.28;1.60;;;;;;;9.19;60.07;98334.75;1686727;83;21479;-82
2022/04/08 07:58:32;;;;;;;4.65;1.20;;;;;;;9.25;59.77;98357.89;1685242;83;21551;-82
2022/04/08 08:00:59;;;;;;;5.70;1.75;;;;;;;9.33;59.49;98376.20;1693004;83;23039;-82
2022/04/08 08:03:25;;;;;;;4.25;2.08;;;;;;;9.48;59.93;98398.39;1688072;83;21064;-81
2022/04/08 08:05:53;;;;;;;4.80;1.62;;;;;;;9.49;58.80;98376.92;1684476;83;21072;-83
2022/04/08 08:08:20;;;;;;;7.12;2.17;;;;;;;9.38;59.02;98385.34;1688550;84;21216;-82
2022/04/08 08:10:47;;;;;;;7.20;1.85;;;;;;;9.56;59.43;98381.70;1684328;84;22229;-82
2022/04/08 08:13:14;;;;;;;7.72;2.08;;;;;;;9.75;59.06;98385.87;1683926;83;23174;-82
2022/04/08 08:15:41;;;;;;;5.03;1.50;;;;;;;9.96;59.11;98397.92;1683862;84;21128;-82
2022/04/08 08:18:08;;;;;;;4.78;1.55;;;;;;;10.08;58.25;98399.13;1673749;84;21064;-82
2022/04/08 08:20:36;;;;;;;4.92;1.90;;;;;;;10.16;57.61;98391.15;1684615;83;21041;-82
2022/04/08 08:23:03;;;;;;;7.08;2.00;;;;;;;10.07;57.22;98401.77;1689097;83;21117;-82
2022/04/08 08:25:30;;;;;;;8.98;1.50;;;;;;;9.85;56.69;98415.14;1689608;84;21782;-82
2022/04/08 08:28:04;;;;;;;6.70;2.20;;;;;;;9.78;56.51;98415.18;1685956;84;21091;-82
2022/04/08 08:30:31;;;;;;;3.15;1.42;;;;;;;9.72;56.63;98427.93;1684894;84;21072;-82
2022/04/08 08:32:58;;;;;;;9.00;1.87;;;;;;;9.73;56.35;98427.92;1684438;84;21084;-82
2022/04/08 08:35:27;;;;;;;4.58;1.67;;;;;;;9.79;56.57;98434.88;1684749;83;21048;-82
2022/04/08 08:37:54;;;;;;;6.37;1.70;;;;;;;9.99;56.52;98441.72;1689099;83;22584;-82
2022/04/08 08:40:21;;;;;;;5.65;2.00;;;;;;;10.07;56.06;98441.19;1684754;83;21028;-82
2022/04/08 08:42:48;;;;;;;4.72;1.98;;;;;;;10.14;55.94;98440.70;1681523;83;21061;-82
2022/04/08 08:45:17;;;;;;;8.28;1.90;;;;;;;10.16;55.55;98463.45;1683826;84;21093;-82
2022/04/08 08:47:49;;;;;;;6.40;2.10;;;;;;;10.08;55.32;98453.02;1668240;84;21108;-83
2022/04/08 08:50:17;;;;;;;5.25;1.98;;;;;;;9.96;55.02;98460.13;1679793;83;21768;-81
2022/04/08 08:52:44;;;;;;;5.87;1.90;;;;;;;9.85;54.84;98471.63;1696003;82;21610;-82
2022/04/08 08:55:11;;;;;;;5.10;1.95;;;;;;;9.73;54.93;98482.23;1677091;83;21097;-82
2022/04/08 08:57:39;;;;;;;4.12;1.95;;;;;;;9.71;55.13;98482.23;1696634;82;21068;-82
2022/04/08 09:00:13;;;;;;;8.53;2.40;;;;;;;9.95;55.20;98482.92;1698451;82;21018;-82
2022/04/08 09:02:40;;;;;;;10.28;2.25;;;;;;;10.27;55.33;98502.78;1678867;83;21794;-83
2022/04/08 09:05:14;;;;;;;10.82;2.65;;;;;;;10.49;54.83;98490.28;1695513;82;21092;-83
2022/04/08 09:07:41;;;;;;;7.10;2.10;;;;;;;10.45;54.24;98497.34;1687802;82;21060;-83
2022/04/08 09:10:08;;;;;;;5.90;2.30;;;;;;;10.42;54.33;98503.10;1695689;82;21574;-83
2022/04/08 09:12:34;;;;;;;7.42;1.98;;;;;;;10.55;54.53;98509.08;1694027;82;21112;-82
2022/04/08 09:15:02;;;;;;;9.20;2.27;;;;;;;10.64;54.21;98510.30;1683323;83;22944;-83
2022/04/08 09:17:30;;;;;;;7.45;1.98;;;;;;;10.64;53.59;98518.19;1657014;85;21065;-83
2022/04/08 09:19:58;;;;;;;8.10;2.12;;;;;;;10.57;53.20;98519.17;1675570;85;21097;-82
2022/04/08 09:22:36;;;;;;;3.00;1.72;;;;;;;10.47;52.91;98511.38;1670516;85;21053;-83
2022/04/08 09:25:11;;;;;;;4.62;2.20;;;;;;;10.37;52.83;98527.25;1671079;84;21921;-83
2022/04/08 09:27:42;;;;;;;9.15;2.50;;;;;;;10.36;52.91;98536.02;1671399;85;23009;-82
2022/04/08 09:30:09;;;;;;;5.58;1.82;;;;;;;10.35;52.87;98540.86;1673337;84;21984;-83
2022/04/08 09:32:36;;;;;;;7.25;2.02;;;;;;;10.41;52.61;98543.42;1668734;85;21100;-83
2022/04/08 09:35:04;;;;;;;9.10;2.98;;;;;;;10.48;52.46;98550.38;1670063;85;22306;-83
2022/04/08 09:37:30;;;;;;;5.87;2.33;;;;;;;10.54;52.13;98558.64;1675660;84;21061;-82
2022/04/08 09:39:59;;;;;;;7.10;2.22;;;;;;;10.55;52.14;98570.48;1668435;85;21760;-82
2022/04/08 09:42:46;;;;;;;5.83;2.10;;;;;;;10.55;51.45;98575.73;1673590;85;21046;-83
2022/04/08 09:45:14;;;;;;;9.05;2.65;;;;;;;10.59;50.93;98585.78;1671961;84;21111;-82
2022/04/08 09:47:42;;;;;;;5.97;2.10;;;;;;;10.61;51.20;98591.45;1658342;85;21491;-82
2022/04/08 09:50:10;;;;;;;6.70;2.22;;;;;;;10.64;51.23;98598.43;1685279;83;21100;-82
2022/04/08 09:52:41;;;;;;;8.38;2.72;;;;;;;10.73;51.28;98596.16;1717546;81;21715;-82
2022/04/08 09:55:09;;;;;;;9.50;2.52;;;;;;;10.72;50.37;98603.19;1678136;83;21073;-82
2022/04/08 09:57:39;;;;;;;8.65;2.30;;;;;;;10.70;50.56;98609.78;1678346;83;21443;-82
2022/04/08 10:00:10;;;;;;;7.58;3.27;;;;;;;10.76;50.69;98610.16;1649360;85;21360;-81
2022/04/08 10:02:44;;;;;;;6.70;2.75;;;;;;;10.82;50.48;98621.06;1680497;83;20998;-84
2022/04/08 10:05:10;;;;;;;7.37;2.65;;;;;;;10.85;50.03;98621.91;1650306;85;21677;-83
2022/04/08 10:07:40;;;;;;;7.42;2.50;;;;;;;10.81;49.94;98627.20;1680464;83;21765;-81
2022/04/08 10:10:29;;;;;;;7.35;2.22;;;;;;;10.88;49.48;98615.73;1651697;85;21513;-83
2022/04/08 10:13:11;;;;;;;7.67;2.58;;;;;;;10.93;49.13;98644.66;1664775;84;21922;-82
2022/04/08 10:15:48;;;;;;;7.97;2.52;;;;;;;10.96;48.95;98645.50;1651502;85;21072;-81
2022/04/08 10:18:15;;;;;;;4.78;1.52;;;;;;;11.07;48.63;98650.20;1664246;83;21912;-82
2022/04/08 10:20:43;;;;;;;6.33;2.05;;;;;;;11.13;47.14;98646.63;1649586;85;21073;-82
2022/04/08 10:23:12;;;;;;;6.75;1.87;;;;;;;11.08;47.14;98669.05;1652960;84;21053;-82
2022/04/08 10:25:41;;;;;;;10.45;2.35;;;;;;;10.98;46.29;98657.30;1644048;85;21186;-82
2022/04/08 10:28:10;;;;;;;8.45;2.15;;;;;;;10.92;46.22;98658.23;1678899;83;21126;-82
2022/04/08 10:30:46;;;;;;;6.00;1.70;;;;;;;11.01;46.04;98671.30;1651693;85;22433;-82
2022/04/08 10:33:13;;;;;;;7.22;2.20;;;;;;;11.08;45.87;98669.05;1663283;83;21030;-82
2022/04/08 10:35:53;;;;;;;9.83;2.30;;;;;;;11.14;45.67;98671.19;1651787;85;21002;-82
2022/04/08 10:38:20;;;;;;;7.15;2.33;;;;;;;11.29;45.93;98665.75;1657581;83;21130;-82
2022/04/08 10:40:59;;;;;;;12.50;2.17;;;;;;;11.50;45.88;98670.34;1676981;84;21081;-83
2022/04/08 10:43:26;;;;;;;5.58;2.65;;;;;;;11.56;45.37;98671.58;1632615;85;23181;-82
2022/04/08 10:45:57;;;;;;;6.35;1.98;;;;;;;11.65;45.28;98672.33;1678684;83;21053;-83
2022/04/08 10:48:33;;;;;;;7.67;1.67;;;;;;;11.72;45.01;98682.36;1628176;85;21066;-81
2022/04/08 10:51:13;;;;;;;4.10;1.82;;;;;;;11.72;44.73;98688.95;1682455;83;21290;-84
2022/04/08 10:53:41;;;;;;;9.93;2.62;;;;;;;11.71;44.64;98686.33;1656307;85;21097;-83
2022/04/08 10:56:13;;;;;;;9.73;2.22;;;;;;;11.69;44.61;98698.20;1641496;85;22451;-82
2022/04/08 10:58:49;;;;;;;9.60;2.33;;;;;;;11.64;43.79;98687.73;1670668;84;21062;-83
2022/04/08 11:01:24;;;;;;;4.95;2.25;;;;;;;11.46;44.08;98698.03;1669513;85;22438;-83
2022/04/08 11:04:00;;;;;;;5.47;1.50;;;;;;;11.38;44.23;98694.62;1697554;82;21087;-82
2022/04/08 11:06:33;;;;;;;4.80;1.70;;;;;;;11.22;42.23;98700.94;1712884;81;21652;-83
2022/04/08 11:09:16;;;;;;;6.15;2.22;;;;;;;10.95;42.45;98709.55;1709801;81;21772;-83
2022/04/08 11:11:44;;;;;;;7.58;1.62;;;;;;;10.85;42.72;98722.38;1719102;81;21046;-82
2022/04/08 11:14:11;;;;;;;6.87;2.10;;;;;;;10.79;42.85;98718.45;1716467;81;21548;-81
2022/04/08 11:16:42;;;;;;;8.75;1.47;;;;;;;10.80;42.65;98726.80;1713549;81;21073;-83
2022/04/08 11:19:10;;;;;;;5.80;1.80;;;;;;;10.82;41.78;98723.25;1716997;81;21104;-82
2022/04/08 11:21:38;;;;;;;7.95;2.30;;;;;;;10.96;42.79;98716.99;1699671;81;21769;-83
2022/04/08 11:24:11;;;;;;;7.72;2.00;;;;;;;11.17;42.83;98719.89;1706758;82;21065;-82
2022/04/08 11:26:45;;;;;;;7.72;2.35;;;;;;;11.28;42.76;98728.09;1700790;83;21090;-82
2022/04/08 11:29:19;;;;;;;8.53;2.30;;;;;;;11.26;42.15;98754.00;1717410;81;21614;-82
2022/04/08 11:31:47;;;;;;;7.03;1.90;;;;;;;11.12;42.18;98730.45;1723501;81;21132;-81
2022/04/08 11:34:14;;;;;;;4.85;2.35;;;;;;;11.07;42.12;98753.30;1715444;82;23230;-81
2022/04/08 11:36:41;;;;;;;9.95;2.15;;;;;;;11.02;41.60;98741.97;1718638;82;21754;-81
2022/04/08 11:39:08;;;;;;;7.42;1.95;;;;;;;10.99;41.88;98743.30;1738939;81;21044;-82
2022/04/08 11:41:36;;;;;;;6.45;2.10;;;;;;;10.99;42.03;98756.01;1688361;81;21108;-81
2022/04/08 11:44:12;;;;;;;7.90;2.10;;;;;;;11.00;42.04;98759.09;1690707;81;21088;-82
2022/04/08 11:46:39;;;;;;;5.05;1.90;;;;;;;11.09;42.12;98759.42;1687050;82;21821;-82
2022/04/08 11:49:15;;;;;;;5.03;1.82;;;;;;;11.26;42.03;98765.85;1689282;81;21869;-82
2022/04/08 11:51:41;;;;;;;6.12;2.37;;;;;;;11.50;42.18;98755.52;1685795;82;21101;-82